sensor_id;sensor_type;location;lat;lon;timestamp;P1;durP1;ratioP1;P2;durP2;ratioP2
1402;SDS011;696;48.546;9.896;2022-12-16T00:01:48;35.97;;;20.42;;
1402;SDS011;696;48.546;9.896;2022-12-16T00:04:14;39.85;;;19.95;;
1402;SDS011;696;48.546;9.896;2022-12-16T00:06:41;39.88;;;21.83;;
1402;SDS011;696;48.546;9.896;2022-12-16T00:09:07;34.42;;;18.70;;
1402;SDS011;696;48.546;9.896;2022-12-16T00:11:32;41.15;;;21.67;;
1402;SDS011;696;48.546;9.896;2022-12-16T00:13:58;44.10;;;19.73;;
1402;SDS011;696;48.546;9.896;2022-12-16T00:16:23;41.88;;;21.02;;
1402;SDS011;696;48.546;9.896;2022-12-16T00:18:49;43.47;;;20.00;;
1402;SDS011;696;48.546;9.896;2022-12-16T00:21:14;43.63;;;21.45;;
1402;SDS011;696;48.546;9.896;2022-12-16T00:23:42;45.35;;;20.40;;
1402;SDS011;696;48.546;9.896;2022-12-16T00:26:08;41.95;;;21.52;;
1402;SDS011;696;48.546;9.896;2022-12-16T00:28:34;44.88;;;20.55;;
1402;SDS011;696;48.546;9.896;2022-12-16T00:31:00;42.42;;;20.55;;
1402;SDS011;696;48.546;9.896;2022-12-16T00:33:26;41.45;;;21.08;;
1402;SDS011;696;48.546;9.896;2022-12-16T00:35:52;45.63;;;21.98;;
1402;SDS011;696;48.546;9.896;2022-12-16T00:38:18;39.83;;;21.45;;
1402;SDS011;696;48.546;9.896;2022-12-16T00:40:43;43.60;;;21.80;;
1402;SDS011;696;48.546;9.896;2022-12-16T00:43:09;36.42;;;21.25;;
1402;SDS011;696;48.546;9.896;2022-12-16T00:45:34;58.10;;;21.52;;
1402;SDS011;696;48.546;9.896;2022-12-16T00:48:00;46.63;;;22.73;;
1402;SDS011;696;48.546;9.896;2022-12-16T00:50:25;39.47;;;21.08;;
1402;SDS011;696;48.546;9.896;2022-12-16T00:52:51;39.88;;;22.35;;
1402;SDS011;696;48.546;9.896;2022-12-16T00:55:16;41.65;;;21.30;;
1402;SDS011;696;48.546;9.896;2022-12-16T00:57:43;47.60;;;22.75;;
1402;SDS011;696;48.546;9.896;2022-12-16T01:00:09;38.88;;;21.10;;
1402;SDS011;696;48.546;9.896;2022-12-16T01:02:39;46.50;;;22.33;;
1402;SDS011;696;48.546;9.896;2022-12-16T01:05:05;37.45;;;21.10;;
1402;SDS011;696;48.546;9.896;2022-12-16T01:07:31;45.97;;;21.10;;
1402;SDS011;696;48.546;9.896;2022-12-16T01:09:56;43.67;;;21.23;;
1402;SDS011;696;48.546;9.896;2022-12-16T01:12:22;43.70;;;21.42;;
1402;SDS011;696;48.546;9.896;2022-12-16T01:14:48;44.80;;;21.23;;
1402;SDS011;696;48.546;9.896;2022-12-16T01:17:14;45.58;;;22.25;;
1402;SDS011;696;48.546;9.896;2022-12-16T01:19:39;37.38;;;21.92;;
1402;SDS011;696;48.546;9.896;2022-12-16T01:22:04;41.60;;;21.13;;
1402;SDS011;696;48.546;9.896;2022-12-16T01:24:30;52.90;;;23.60;;
1402;SDS011;696;48.546;9.896;2022-12-16T01:26:55;45.53;;;22.92;;
1402;SDS011;696;48.546;9.896;2022-12-16T01:29:20;44.65;;;23.27;;
1402;SDS011;696;48.546;9.896;2022-12-16T01:31:46;41.65;;;22.70;;
1402;SDS011;696;48.546;9.896;2022-12-16T01:34:11;44.25;;;23.55;;
1402;SDS011;696;48.546;9.896;2022-12-16T01:36:36;44.15;;;23.20;;
1402;SDS011;696;48.546;9.896;2022-12-16T01:39:02;45.97;;;22.83;;
1402;SDS011;696;48.546;9.896;2022-12-16T01:41:27;47.95;;;23.80;;
1402;SDS011;696;48.546;9.896;2022-12-16T01:44:09;39.42;;;22.30;;
1402;SDS011;696;48.546;9.896;2022-12-16T01:46:38;44.35;;;23.08;;
1402;SDS011;696;48.546;9.896;2022-12-16T01:49:05;56.47;;;23.48;;
1402;SDS011;696;48.546;9.896;2022-12-16T01:51:35;49.00;;;24.85;;
1402;SDS011;696;48.546;9.896;2022-12-16T01:56:41;48.35;;;26.80;;
1402;SDS011;696;48.546;9.896;2022-12-16T01:59:09;52.67;;;25.73;;
1402;SDS011;696;48.546;9.896;2022-12-16T02:01:35;49.10;;;25.58;;
1402;SDS011;696;48.546;9.896;2022-12-16T02:04:01;54.95;;;26.27;;
1402;SDS011;696;48.546;9.896;2022-12-16T02:06:28;63.15;;;26.85;;
1402;SDS011;696;48.546;9.896;2022-12-16T02:08:54;57.90;;;27.42;;
1402;SDS011;696;48.546;9.896;2022-12-16T02:11:25;49.92;;;25.80;;
1402;SDS011;696;48.546;9.896;2022-12-16T02:16:42;52.53;;;26.00;;
1402;SDS011;696;48.546;9.896;2022-12-16T02:39:45;47.30;;;25.23;;
1402;SDS011;696;48.546;9.896;2022-12-16T02:47:37;44.47;;;23.52;;
1402;SDS011;696;48.546;9.896;2022-12-16T02:50:04;49.92;;;24.42;;
1402;SDS011;696;48.546;9.896;2022-12-16T02:52:33;45.25;;;23.15;;
1402;SDS011;696;48.546;9.896;2022-12-16T02:55:03;47.80;;;25.02;;
1402;SDS011;696;48.546;9.896;2022-12-16T03:00:20;56.85;;;25.20;;
1402;SDS011;696;48.546;9.896;2022-12-16T03:05:43;43.28;;;23.50;;
1402;SDS011;696;48.546;9.896;2022-12-16T03:11:07;46.95;;;23.73;;
1402;SDS011;696;48.546;9.896;2022-12-16T03:13:38;48.55;;;24.40;;
1402;SDS011;696;48.546;9.896;2022-12-16T03:16:06;40.30;;;18.30;;
1402;SDS011;696;48.546;9.896;2022-12-16T03:18:32;51.60;;;26.05;;
1402;SDS011;696;48.546;9.896;2022-12-16T03:21:02;43.38;;;24.38;;
1402;SDS011;696;48.546;9.896;2022-12-16T03:23:35;50.17;;;25.40;;
1402;SDS011;696;48.546;9.896;2022-12-16T03:26:08;53.88;;;25.00;;
1402;SDS011;696;48.546;9.896;2022-12-16T03:36:53;48.53;;;24.75;;
1402;SDS011;696;48.546;9.896;2022-12-16T03:39:20;56.92;;;23.88;;
1402;SDS011;696;48.546;9.896;2022-12-16T03:41:47;51.97;;;25.30;;
1402;SDS011;696;48.546;9.896;2022-12-16T03:44:14;42.08;;;23.10;;
1402;SDS011;696;48.546;9.896;2022-12-16T03:46:39;53.35;;;23.98;;
1402;SDS011;696;48.546;9.896;2022-12-16T03:49:05;49.13;;;24.50;;
1402;SDS011;696;48.546;9.896;2022-12-16T03:51:30;54.17;;;24.90;;
1402;SDS011;696;48.546;9.896;2022-12-16T03:53:55;48.08;;;23.77;;
1402;SDS011;696;48.546;9.896;2022-12-16T03:56:21;48.17;;;22.55;;
1402;SDS011;696;48.546;9.896;2022-12-16T03:58:46;50.03;;;25.92;;
1402;SDS011;696;48.546;9.896;2022-12-16T04:01:11;52.92;;;24.27;;
1402;SDS011;696;48.546;9.896;2022-12-16T04:03:37;54.53;;;24.67;;
1402;SDS011;696;48.546;9.896;2022-12-16T04:06:03;51.60;;;24.63;;
1402;SDS011;696;48.546;9.896;2022-12-16T04:08:28;44.28;;;22.50;;
1402;SDS011;696;48.546;9.896;2022-12-16T04:10:54;43.45;;;22.30;;
1402;SDS011;696;48.546;9.896;2022-12-16T04:13:37;44.70;;;22.90;;
1402;SDS011;696;48.546;9.896;2022-12-16T04:16:22;45.80;;;23.20;;
1402;SDS011;696;48.546;9.896;2022-12-16T04:19:08;51.08;;;24.48;;
1402;SDS011;696;48.546;9.896;2022-12-16T04:21:55;45.55;;;24.33;;
1402;SDS011;696;48.546;9.896;2022-12-16T04:24:39;47.03;;;23.45;;
1402;SDS011;696;48.546;9.896;2022-12-16T04:27:04;61.05;;;25.17;;
1402;SDS011;696;48.546;9.896;2022-12-16T04:29:48;50.33;;;24.95;;
1402;SDS011;696;48.546;9.896;2022-12-16T04:32:32;51.97;;;25.98;;
1402;SDS011;696;48.546;9.896;2022-12-16T04:35:17;53.42;;;26.92;;
1402;SDS011;696;48.546;9.896;2022-12-16T04:38:01;50.53;;;24.98;;
1402;SDS011;696;48.546;9.896;2022-12-16T04:40:45;57.55;;;26.85;;
1402;SDS011;696;48.546;9.896;2022-12-16T04:43:29;47.40;;;24.13;;
1402;SDS011;696;48.546;9.896;2022-12-16T04:46:13;49.05;;;24.23;;
1402;SDS011;696;48.546;9.896;2022-12-16T04:48:57;57.80;;;22.92;;
1402;SDS011;696;48.546;9.896;2022-12-16T04:51:41;43.05;;;22.63;;
1402;SDS011;696;48.546;9.896;2022-12-16T04:54:25;37.97;;;22.05;;
1402;SDS011;696;48.546;9.896;2022-12-16T04:57:09;43.92;;;21.88;;
1402;SDS011;696;48.546;9.896;2022-12-16T04:59:58;37.97;;;21.58;;
1402;SDS011;696;48.546;9.896;2022-12-16T05:02:42;40.40;;;21.38;;
1402;SDS011;696;48.546;9.896;2022-12-16T05:05:25;48.08;;;23.20;;
1402;SDS011;696;48.546;9.896;2022-12-16T05:08:09;50.47;;;22.88;;
1402;SDS011;696;48.546;9.896;2022-12-16T05:10:54;41.83;;;22.08;;
1402;SDS011;696;48.546;9.896;2022-12-16T05:13:38;42.15;;;21.33;;
1402;SDS011;696;48.546;9.896;2022-12-16T05:16:22;43.42;;;20.98;;
1402;SDS011;696;48.546;9.896;2022-12-16T05:19:06;43.60;;;21.02;;
1402;SDS011;696;48.546;9.896;2022-12-16T05:21:50;40.38;;;20.63;;
1402;SDS011;696;48.546;9.896;2022-12-16T05:24:34;45.50;;;22.08;;
1402;SDS011;696;48.546;9.896;2022-12-16T05:27:17;37.15;;;21.35;;
1402;SDS011;696;48.546;9.896;2022-12-16T05:30:02;42.65;;;22.65;;
1402;SDS011;696;48.546;9.896;2022-12-16T05:32:48;45.60;;;23.83;;
1402;SDS011;696;48.546;9.896;2022-12-16T05:35:32;44.28;;;23.02;;
1402;SDS011;696;48.546;9.896;2022-12-16T05:38:16;49.17;;;22.38;;
1402;SDS011;696;48.546;9.896;2022-12-16T05:41:00;41.65;;;23.75;;
1402;SDS011;696;48.546;9.896;2022-12-16T05:43:44;46.03;;;24.55;;
1402;SDS011;696;48.546;9.896;2022-12-16T05:46:28;44.15;;;21.92;;
1402;SDS011;696;48.546;9.896;2022-12-16T05:49:12;44.42;;;22.40;;
1402;SDS011;696;48.546;9.896;2022-12-16T05:51:56;41.58;;;22.27;;
1402;SDS011;696;48.546;9.896;2022-12-16T05:54:40;51.03;;;21.88;;
1402;SDS011;696;48.546;9.896;2022-12-16T05:57:24;52.65;;;26.48;;
1402;SDS011;696;48.546;9.896;2022-12-16T06:00:08;49.28;;;25.92;;
1402;SDS011;696;48.546;9.896;2022-12-16T06:02:52;54.88;;;25.98;;
1402;SDS011;696;48.546;9.896;2022-12-16T06:05:36;41.70;;;22.55;;
1402;SDS011;696;48.546;9.896;2022-12-16T06:08:20;41.10;;;22.13;;
1402;SDS011;696;48.546;9.896;2022-12-16T06:11:04;48.75;;;23.75;;
1402;SDS011;696;48.546;9.896;2022-12-16T06:13:48;51.55;;;23.85;;
1402;SDS011;696;48.546;9.896;2022-12-16T06:16:32;42.63;;;20.83;;
1402;SDS011;696;48.546;9.896;2022-12-16T06:19:16;51.25;;;24.92;;
1402;SDS011;696;48.546;9.896;2022-12-16T06:22:00;50.95;;;23.52;;
1402;SDS011;696;48.546;9.896;2022-12-16T06:24:43;47.88;;;24.30;;
1402;SDS011;696;48.546;9.896;2022-12-16T06:27:27;52.65;;;24.20;;
1402;SDS011;696;48.546;9.896;2022-12-16T06:30:12;52.58;;;25.40;;
1402;SDS011;696;48.546;9.896;2022-12-16T06:32:56;52.28;;;22.67;;
1402;SDS011;696;48.546;9.896;2022-12-16T06:35:40;44.55;;;23.20;;
1402;SDS011;696;48.546;9.896;2022-12-16T06:38:24;58.90;;;24.38;;
1402;SDS011;696;48.546;9.896;2022-12-16T06:41:08;52.72;;;25.92;;
1402;SDS011;696;48.546;9.896;2022-12-16T06:43:52;47.45;;;23.63;;
1402;SDS011;696;48.546;9.896;2022-12-16T06:46:36;45.28;;;23.77;;
1402;SDS011;696;48.546;9.896;2022-12-16T06:49:20;43.47;;;23.58;;
1402;SDS011;696;48.546;9.896;2022-12-16T06:52:04;47.88;;;25.08;;
1402;SDS011;696;48.546;9.896;2022-12-16T06:54:48;45.13;;;23.77;;
1402;SDS011;696;48.546;9.896;2022-12-16T06:57:32;53.97;;;23.95;;
1402;SDS011;696;48.546;9.896;2022-12-16T07:00:16;48.63;;;22.85;;
1402;SDS011;696;48.546;9.896;2022-12-16T07:02:59;46.92;;;23.90;;
1402;SDS011;696;48.546;9.896;2022-12-16T07:05:43;44.55;;;22.73;;
1402;SDS011;696;48.546;9.896;2022-12-16T07:08:27;38.17;;;22.08;;
1402;SDS011;696;48.546;9.896;2022-12-16T07:11:11;43.20;;;23.27;;
1402;SDS011;696;48.546;9.896;2022-12-16T07:13:55;46.97;;;23.05;;
1402;SDS011;696;48.546;9.896;2022-12-16T07:16:39;49.00;;;22.90;;
1402;SDS011;696;48.546;9.896;2022-12-16T07:19:23;39.47;;;21.50;;
1402;SDS011;696;48.546;9.896;2022-12-16T07:22:07;41.75;;;22.25;;
1402;SDS011;696;48.546;9.896;2022-12-16T07:24:55;52.38;;;24.20;;
1402;SDS011;696;48.546;9.896;2022-12-16T07:27:43;47.83;;;23.60;;
1402;SDS011;696;48.546;9.896;2022-12-16T07:30:28;48.55;;;23.38;;
1402;SDS011;696;48.546;9.896;2022-12-16T07:33:12;47.92;;;24.73;;
1402;SDS011;696;48.546;9.896;2022-12-16T07:35:56;43.92;;;23.35;;
1402;SDS011;696;48.546;9.896;2022-12-16T07:38:40;44.00;;;24.52;;
1402;SDS011;696;48.546;9.896;2022-12-16T07:41:24;46.13;;;23.02;;
1402;SDS011;696;48.546;9.896;2022-12-16T07:44:08;46.22;;;20.95;;
1402;SDS011;696;48.546;9.896;2022-12-16T07:46:52;41.75;;;21.58;;
1402;SDS011;696;48.546;9.896;2022-12-16T07:49:36;41.67;;;22.15;;
1402;SDS011;696;48.546;9.896;2022-12-16T07:52:19;44.58;;;22.25;;
1402;SDS011;696;48.546;9.896;2022-12-16T07:55:03;54.63;;;24.02;;
1402;SDS011;696;48.546;9.896;2022-12-16T07:57:49;46.17;;;23.48;;
1402;SDS011;696;48.546;9.896;2022-12-16T08:00:33;44.40;;;24.45;;
1402;SDS011;696;48.546;9.896;2022-12-16T08:03:17;52.42;;;23.98;;
1402;SDS011;696;48.546;9.896;2022-12-16T08:06:01;41.65;;;22.20;;
1402;SDS011;696;48.546;9.896;2022-12-16T08:08:44;51.78;;;24.40;;
1402;SDS011;696;48.546;9.896;2022-12-16T08:11:28;46.42;;;25.30;;
1402;SDS011;696;48.546;9.896;2022-12-16T08:14:12;47.92;;;23.45;;
1402;SDS011;696;48.546;9.896;2022-12-16T08:16:56;60.55;;;25.83;;
1402;SDS011;696;48.546;9.896;2022-12-16T08:19:40;58.75;;;25.45;;
1402;SDS011;696;48.546;9.896;2022-12-16T08:22:24;39.85;;;22.30;;
1402;SDS011;696;48.546;9.896;2022-12-16T08:25:08;41.67;;;21.90;;
1402;SDS011;696;48.546;9.896;2022-12-16T08:27:53;41.05;;;21.63;;
1402;SDS011;696;48.546;9.896;2022-12-16T08:30:38;47.97;;;23.13;;
1402;SDS011;696;48.546;9.896;2022-12-16T08:33:22;46.65;;;21.65;;
1402;SDS011;696;48.546;9.896;2022-12-16T08:36:05;51.67;;;23.05;;
1402;SDS011;696;48.546;9.896;2022-12-16T08:38:50;42.20;;;21.45;;
1402;SDS011;696;48.546;9.896;2022-12-16T08:41:34;43.08;;;22.40;;
1402;SDS011;696;48.546;9.896;2022-12-16T08:44:18;40.95;;;20.52;;
1402;SDS011;696;48.546;9.896;2022-12-16T08:47:01;43.33;;;21.15;;
1402;SDS011;696;48.546;9.896;2022-12-16T08:49:45;43.15;;;21.40;;
1402;SDS011;696;48.546;9.896;2022-12-16T08:52:29;39.67;;;19.88;;
1402;SDS011;696;48.546;9.896;2022-12-16T08:55:13;42.88;;;20.48;;
1402;SDS011;696;48.546;9.896;2022-12-16T08:57:59;39.50;;;20.33;;
1402;SDS011;696;48.546;9.896;2022-12-16T09:00:42;33.80;;;19.40;;
1402;SDS011;696;48.546;9.896;2022-12-16T09:03:26;41.20;;;22.08;;
1402;SDS011;696;48.546;9.896;2022-12-16T09:06:10;42.08;;;21.77;;
1402;SDS011;696;48.546;9.896;2022-12-16T09:08:54;34.35;;;19.45;;
1402;SDS011;696;48.546;9.896;2022-12-16T09:11:38;44.17;;;21.85;;
1402;SDS011;696;48.546;9.896;2022-12-16T09:14:22;43.97;;;20.60;;
1402;SDS011;696;48.546;9.896;2022-12-16T09:17:06;35.38;;;20.55;;
1402;SDS011;696;48.546;9.896;2022-12-16T09:19:50;38.35;;;19.33;;
1402;SDS011;696;48.546;9.896;2022-12-16T09:22:33;49.15;;;21.67;;
1402;SDS011;696;48.546;9.896;2022-12-16T09:25:17;42.45;;;19.58;;
1402;SDS011;696;48.546;9.896;2022-12-16T09:28:01;43.15;;;21.67;;
1402;SDS011;696;48.546;9.896;2022-12-16T09:30:45;38.72;;;20.10;;
1402;SDS011;696;48.546;9.896;2022-12-16T09:33:29;41.63;;;20.45;;
1402;SDS011;696;48.546;9.896;2022-12-16T09:36:13;38.90;;;20.23;;
1402;SDS011;696;48.546;9.896;2022-12-16T09:38:57;41.47;;;21.77;;
1402;SDS011;696;48.546;9.896;2022-12-16T09:41:42;39.55;;;21.20;;
1402;SDS011;696;48.546;9.896;2022-12-16T09:44:40;35.28;;;19.55;;
1402;SDS011;696;48.546;9.896;2022-12-16T09:50:32;30.05;;;15.32;;
1402;SDS011;696;48.546;9.896;2022-12-16T09:53:19;35.00;;;19.35;;
1402;SDS011;696;48.546;9.896;2022-12-16T09:56:06;36.58;;;20.33;;
1402;SDS011;696;48.546;9.896;2022-12-16T09:58:57;51.08;;;23.88;;
1402;SDS011;696;48.546;9.896;2022-12-16T10:01:43;56.47;;;23.83;;
1402;SDS011;696;48.546;9.896;2022-12-16T10:04:27;42.70;;;22.98;;
1402;SDS011;696;48.546;9.896;2022-12-16T10:07:18;41.88;;;20.73;;
1402;SDS011;696;48.546;9.896;2022-12-16T10:10:27;55.97;;;22.67;;
1402;SDS011;696;48.546;9.896;2022-12-16T10:13:31;37.55;;;20.60;;
1402;SDS011;696;48.546;9.896;2022-12-16T10:22:47;34.10;;;19.17;;
1402;SDS011;696;48.546;9.896;2022-12-16T10:28:44;39.83;;;16.58;;
1402;SDS011;696;48.546;9.896;2022-12-16T10:31:29;38.38;;;17.63;;
1402;SDS011;696;48.546;9.896;2022-12-16T10:34:14;44.30;;;19.48;;
1402;SDS011;696;48.546;9.896;2022-12-16T10:37:04;33.28;;;17.10;;
1402;SDS011;696;48.546;9.896;2022-12-16T10:39:49;33.17;;;17.15;;
1402;SDS011;696;48.546;9.896;2022-12-16T10:42:36;45.47;;;17.55;;
1402;SDS011;696;48.546;9.896;2022-12-16T10:45:29;34.03;;;17.13;;
1402;SDS011;696;48.546;9.896;2022-12-16T10:48:25;33.80;;;18.27;;
1402;SDS011;696;48.546;9.896;2022-12-16T10:51:11;31.67;;;15.48;;
1402;SDS011;696;48.546;9.896;2022-12-16T10:54:00;31.42;;;16.58;;
1402;SDS011;696;48.546;9.896;2022-12-16T10:56:58;31.00;;;15.68;;
1402;SDS011;696;48.546;9.896;2022-12-16T10:59:52;46.33;;;15.07;;
1402;SDS011;696;48.546;9.896;2022-12-16T11:02:54;30.92;;;14.18;;
1402;SDS011;696;48.546;9.896;2022-12-16T11:05:38;31.58;;;14.75;;
1402;SDS011;696;48.546;9.896;2022-12-16T11:08:31;28.85;;;14.75;;
1402;SDS011;696;48.546;9.896;2022-12-16T11:11:27;27.00;;;13.80;;
1402;SDS011;696;48.546;9.896;2022-12-16T11:17:21;24.77;;;14.30;;
1402;SDS011;696;48.546;9.896;2022-12-16T11:23:12;27.98;;;14.63;;
1402;SDS011;696;48.546;9.896;2022-12-16T11:26:08;29.53;;;14.87;;
1402;SDS011;696;48.546;9.896;2022-12-16T11:35:02;28.45;;;15.23;;
1402;SDS011;696;48.546;9.896;2022-12-16T11:37:47;24.50;;;14.43;;
1402;SDS011;696;48.546;9.896;2022-12-16T11:40:32;23.48;;;13.38;;
1402;SDS011;696;48.546;9.896;2022-12-16T11:43:17;27.92;;;15.00;;
1402;SDS011;696;48.546;9.896;2022-12-16T11:46:02;29.17;;;14.77;;
1402;SDS011;696;48.546;9.896;2022-12-16T11:48:50;25.63;;;14.45;;
1402;SDS011;696;48.546;9.896;2022-12-16T11:51:37;27.33;;;13.75;;
1402;SDS011;696;48.546;9.896;2022-12-16T11:54:29;27.50;;;15.18;;
1402;SDS011;696;48.546;9.896;2022-12-16T11:57:32;30.88;;;14.65;;
1402;SDS011;696;48.546;9.896;2022-12-16T12:00:44;26.92;;;14.45;;
1402;SDS011;696;48.546;9.896;2022-12-16T12:03:37;21.63;;;14.82;;
1402;SDS011;696;48.546;9.896;2022-12-16T12:06:31;26.83;;;15.43;;
1402;SDS011;696;48.546;9.896;2022-12-16T12:09:19;27.10;;;14.40;;
1402;SDS011;696;48.546;9.896;2022-12-16T12:12:12;28.65;;;16.20;;
1402;SDS011;696;48.546;9.896;2022-12-16T12:18:49;29.58;;;14.65;;
1402;SDS011;696;48.546;9.896;2022-12-16T12:28:01;32.10;;;16.85;;
1402;SDS011;696;48.546;9.896;2022-12-16T12:31:23;33.78;;;16.05;;
1402;SDS011;696;48.546;9.896;2022-12-16T12:37:14;38.10;;;17.25;;
1402;SDS011;696;48.546;9.896;2022-12-16T12:43:26;32.97;;;15.75;;
1402;SDS011;696;48.546;9.896;2022-12-16T12:46:24;36.10;;;16.50;;
1402;SDS011;696;48.546;9.896;2022-12-16T12:52:14;31.30;;;16.70;;
1402;SDS011;696;48.546;9.896;2022-12-16T12:55:39;44.25;;;18.30;;
1402;SDS011;696;48.546;9.896;2022-12-16T12:58:27;36.72;;;16.42;;
1402;SDS011;696;48.546;9.896;2022-12-16T13:01:12;32.42;;;16.25;;
1402;SDS011;696;48.546;9.896;2022-12-16T13:04:17;37.60;;;18.90;;
1402;SDS011;696;48.546;9.896;2022-12-16T13:07:03;43.03;;;19.95;;
1402;SDS011;696;48.546;9.896;2022-12-16T13:10:09;34.28;;;17.92;;
1402;SDS011;696;48.546;9.896;2022-12-16T13:16:00;39.10;;;18.33;;
1402;SDS011;696;48.546;9.896;2022-12-16T13:18:45;35.67;;;18.60;;
1402;SDS011;696;48.546;9.896;2022-12-16T13:27:13;39.50;;;18.63;;
1402;SDS011;696;48.546;9.896;2022-12-16T13:32:54;38.08;;;18.85;;
1402;SDS011;696;48.546;9.896;2022-12-16T13:35:50;31.33;;;16.48;;
1402;SDS011;696;48.546;9.896;2022-12-16T13:38:43;35.33;;;19.67;;
1402;SDS011;696;48.546;9.896;2022-12-16T13:53:40;38.83;;;18.23;;
1402;SDS011;696;48.546;9.896;2022-12-16T13:56:29;35.67;;;19.02;;
1402;SDS011;696;48.546;9.896;2022-12-16T13:59:20;36.75;;;17.83;;
1402;SDS011;696;48.546;9.896;2022-12-16T14:05:13;33.58;;;17.75;;
1402;SDS011;696;48.546;9.896;2022-12-16T14:08:01;31.63;;;16.80;;
1402;SDS011;696;48.546;9.896;2022-12-16T14:10:45;34.55;;;18.40;;
1402;SDS011;696;48.546;9.896;2022-12-16T14:25:35;33.97;;;16.30;;
1402;SDS011;696;48.546;9.896;2022-12-16T14:31:23;36.22;;;17.30;;
1402;SDS011;696;48.546;9.896;2022-12-16T14:34:12;38.38;;;17.73;;
1402;SDS011;696;48.546;9.896;2022-12-16T14:36:58;31.92;;;18.02;;
1402;SDS011;696;48.546;9.896;2022-12-16T14:39:42;33.40;;;17.17;;
1402;SDS011;696;48.546;9.896;2022-12-16T14:42:27;38.38;;;17.25;;
1402;SDS011;696;48.546;9.896;2022-12-16T14:48:22;28.33;;;15.32;;
1402;SDS011;696;48.546;9.896;2022-12-16T14:57:01;33.53;;;15.63;;
1402;SDS011;696;48.546;9.896;2022-12-16T14:59:45;29.10;;;16.23;;
1402;SDS011;696;48.546;9.896;2022-12-16T15:02:31;28.23;;;15.95;;
1402;SDS011;696;48.546;9.896;2022-12-16T15:05:18;29.08;;;16.00;;
1402;SDS011;696;48.546;9.896;2022-12-16T15:08:02;30.00;;;15.30;;
1402;SDS011;696;48.546;9.896;2022-12-16T15:10:46;25.45;;;14.75;;
1402;SDS011;696;48.546;9.896;2022-12-16T15:13:30;29.27;;;15.48;;
1402;SDS011;696;48.546;9.896;2022-12-16T15:16:17;27.58;;;15.73;;
1402;SDS011;696;48.546;9.896;2022-12-16T15:19:02;26.42;;;13.93;;
1402;SDS011;696;48.546;9.896;2022-12-16T15:21:46;27.33;;;14.60;;
1402;SDS011;696;48.546;9.896;2022-12-16T15:24:32;25.33;;;14.15;;
1402;SDS011;696;48.546;9.896;2022-12-16T15:27:25;27.67;;;14.65;;
1402;SDS011;696;48.546;9.896;2022-12-16T15:32:35;28.88;;;14.77;;
1402;SDS011;696;48.546;9.896;2022-12-16T15:38:11;23.55;;;14.02;;
1402;SDS011;696;48.546;9.896;2022-12-16T15:40:59;25.83;;;13.40;;
1402;SDS011;696;48.546;9.896;2022-12-16T15:43:45;32.90;;;14.55;;
1402;SDS011;696;48.546;9.896;2022-12-16T15:46:29;31.05;;;14.05;;
1402;SDS011;696;48.546;9.896;2022-12-16T15:49:20;23.90;;;13.10;;
1402;SDS011;696;48.546;9.896;2022-12-16T15:52:21;29.00;;;14.18;;
1402;SDS011;696;48.546;9.896;2022-12-16T16:01:08;32.53;;;15.40;;
1402;SDS011;696;48.546;9.896;2022-12-16T16:03:53;37.92;;;16.52;;
1402;SDS011;696;48.546;9.896;2022-12-16T16:06:40;28.65;;;16.17;;
1402;SDS011;696;48.546;9.896;2022-12-16T16:09:29;28.48;;;14.43;;
1402;SDS011;696;48.546;9.896;2022-12-16T16:12:15;36.63;;;15.80;;
1402;SDS011;696;48.546;9.896;2022-12-16T16:15:00;25.73;;;14.52;;
1402;SDS011;696;48.546;9.896;2022-12-16T16:17:45;40.92;;;17.63;;
1402;SDS011;696;48.546;9.896;2022-12-16T16:20:29;43.35;;;18.85;;
1402;SDS011;696;48.546;9.896;2022-12-16T16:23:13;36.47;;;17.98;;
1402;SDS011;696;48.546;9.896;2022-12-16T16:25:57;42.10;;;16.65;;
1402;SDS011;696;48.546;9.896;2022-12-16T16:28:41;31.20;;;15.65;;
1402;SDS011;696;48.546;9.896;2022-12-16T16:31:26;32.95;;;16.10;;
1402;SDS011;696;48.546;9.896;2022-12-16T16:34:11;30.27;;;15.63;;
1402;SDS011;696;48.546;9.896;2022-12-16T16:36:55;29.70;;;16.35;;
1402;SDS011;696;48.546;9.896;2022-12-16T16:39:40;27.52;;;14.75;;
1402;SDS011;696;48.546;9.896;2022-12-16T16:42:25;28.63;;;15.25;;
1402;SDS011;696;48.546;9.896;2022-12-16T16:45:09;29.17;;;14.55;;
1402;SDS011;696;48.546;9.896;2022-12-16T16:47:55;34.70;;;13.27;;
1402;SDS011;696;48.546;9.896;2022-12-16T16:50:46;20.95;;;12.35;;
1402;SDS011;696;48.546;9.896;2022-12-16T16:53:30;23.23;;;13.40;;
1402;SDS011;696;48.546;9.896;2022-12-16T16:56:14;25.67;;;13.55;;
1402;SDS011;696;48.546;9.896;2022-12-16T16:58:58;29.77;;;14.65;;
1402;SDS011;696;48.546;9.896;2022-12-16T17:01:42;26.52;;;14.15;;
1402;SDS011;696;48.546;9.896;2022-12-16T17:04:26;34.85;;;13.90;;
1402;SDS011;696;48.546;9.896;2022-12-16T17:07:10;25.50;;;13.88;;
1402;SDS011;696;48.546;9.896;2022-12-16T17:09:54;31.60;;;14.73;;
1402;SDS011;696;48.546;9.896;2022-12-16T17:12:38;25.33;;;13.30;;
1402;SDS011;696;48.546;9.896;2022-12-16T17:15:27;30.15;;;13.93;;
1402;SDS011;696;48.546;9.896;2022-12-16T17:18:13;25.15;;;13.05;;
1402;SDS011;696;48.546;9.896;2022-12-16T17:20:57;28.42;;;13.57;;
1402;SDS011;696;48.546;9.896;2022-12-16T17:23:41;25.23;;;13.25;;
1402;SDS011;696;48.546;9.896;2022-12-16T17:26:25;31.48;;;15.15;;
1402;SDS011;696;48.546;9.896;2022-12-16T17:29:14;34.67;;;16.58;;
1402;SDS011;696;48.546;9.896;2022-12-16T17:32:01;25.00;;;13.82;;
1402;SDS011;696;48.546;9.896;2022-12-16T17:34:45;31.58;;;16.00;;
1402;SDS011;696;48.546;9.896;2022-12-16T17:37:29;41.55;;;14.65;;
1402;SDS011;696;48.546;9.896;2022-12-16T17:40:13;35.03;;;16.98;;
1402;SDS011;696;48.546;9.896;2022-12-16T17:42:56;30.75;;;16.23;;
1402;SDS011;696;48.546;9.896;2022-12-16T17:45:41;27.83;;;13.93;;
1402;SDS011;696;48.546;9.896;2022-12-16T17:48:24;23.50;;;13.05;;
1402;SDS011;696;48.546;9.896;2022-12-16T17:51:08;28.27;;;13.15;;
1402;SDS011;696;48.546;9.896;2022-12-16T17:53:52;23.13;;;13.40;;
1402;SDS011;696;48.546;9.896;2022-12-16T17:56:36;29.92;;;14.48;;
1402;SDS011;696;48.546;9.896;2022-12-16T17:59:20;26.52;;;13.50;;
1402;SDS011;696;48.546;9.896;2022-12-16T18:02:04;26.70;;;13.13;;
1402;SDS011;696;48.546;9.896;2022-12-16T18:04:48;25.05;;;13.00;;
1402;SDS011;696;48.546;9.896;2022-12-16T18:07:32;21.23;;;12.27;;
1402;SDS011;696;48.546;9.896;2022-12-16T18:10:16;24.50;;;12.85;;
1402;SDS011;696;48.546;9.896;2022-12-16T18:13:00;26.73;;;12.88;;
1402;SDS011;696;48.546;9.896;2022-12-16T18:15:50;19.50;;;12.68;;
1402;SDS011;696;48.546;9.896;2022-12-16T18:18:34;23.33;;;12.52;;
1402;SDS011;696;48.546;9.896;2022-12-16T18:21:19;22.50;;;12.77;;
1402;SDS011;696;48.546;9.896;2022-12-16T18:24:06;30.23;;;12.85;;
1402;SDS011;696;48.546;9.896;2022-12-16T18:26:51;26.30;;;13.82;;
1402;SDS011;696;48.546;9.896;2022-12-16T18:29:35;23.00;;;13.68;;
1402;SDS011;696;48.546;9.896;2022-12-16T18:32:19;28.95;;;14.63;;
1402;SDS011;696;48.546;9.896;2022-12-16T18:35:03;27.40;;;14.50;;
1402;SDS011;696;48.546;9.896;2022-12-16T18:37:47;28.63;;;14.15;;
1402;SDS011;696;48.546;9.896;2022-12-16T18:40:31;23.63;;;14.25;;
1402;SDS011;696;48.546;9.896;2022-12-16T18:43:15;30.58;;;15.65;;
1402;SDS011;696;48.546;9.896;2022-12-16T18:45:59;28.98;;;14.02;;
1402;SDS011;696;48.546;9.896;2022-12-16T18:48:43;29.35;;;13.77;;
1402;SDS011;696;48.546;9.896;2022-12-16T18:51:26;31.20;;;14.10;;
1402;SDS011;696;48.546;9.896;2022-12-16T18:54:10;28.83;;;14.38;;
1402;SDS011;696;48.546;9.896;2022-12-16T18:56:54;44.72;;;19.90;;
1402;SDS011;696;48.546;9.896;2022-12-16T18:59:38;39.28;;;16.70;;
1402;SDS011;696;48.546;9.896;2022-12-16T19:02:22;40.15;;;18.60;;
1402;SDS011;696;48.546;9.896;2022-12-16T19:05:06;45.42;;;18.38;;